sensor_id;sensor_type;location;lat;lon;timestamp;temperature;humidity
20438;DHT22;17436;50.338;8.810;2022-07-01T00:00:40;18.90;41.30
20438;DHT22;17436;50.338;8.810;2022-07-01T00:03:08;18.60;45.80
20438;DHT22;17436;50.338;8.810;2022-07-01T00:05:36;18.80;43.40
20438;DHT22;17436;50.338;8.810;2022-07-01T00:08:04;18.60;44.70
20438;DHT22;17436;50.338;8.810;2022-07-01T00:10:33;18.70;43.70
20438;DHT22;17436;50.338;8.810;2022-07-01T00:13:03;19.00;41.40
20438;DHT22;17436;50.338;8.810;2022-07-01T00:15:30;18.90;41.80
20438;DHT22;17436;50.338;8.810;2022-07-01T00:17:56;18.60;45.10
20438;DHT22;17436;50.338;8.810;2022-07-01T00:20:24;18.50;48.60
20438;DHT22;17436;50.338;8.810;2022-07-01T00:22:51;18.50;46.60
20438;DHT22;17436;50.338;8.810;2022-07-01T00:25:18;18.60;46.60
20438;DHT22;17436;50.338;8.810;2022-07-01T00:27:44;18.70;46.90
20438;DHT22;17436;50.338;8.810;2022-07-01T00:30:12;18.90;44.10
20438;DHT22;17436;50.338;8.810;2022-07-01T00:32:40;18.70;43.10
20438;DHT22;17436;50.338;8.810;2022-07-01T00:35:07;18.40;48.80
20438;DHT22;17436;50.338;8.810;2022-07-01T00:37:38;18.60;49.10
20438;DHT22;17436;50.338;8.810;2022-07-01T00:40:06;19.00;42.40
20438;DHT22;17436;50.338;8.810;2022-07-01T00:42:33;18.90;43.30
20438;DHT22;17436;50.338;8.810;2022-07-01T00:45:06;18.80;42.50
20438;DHT22;17436;50.338;8.810;2022-07-01T00:47:33;18.80;43.30
20438;DHT22;17436;50.338;8.810;2022-07-01T00:50:00;18.90;43.50
20438;DHT22;17436;50.338;8.810;2022-07-01T00:52:27;19.10;39.70
20438;DHT22;17436;50.338;8.810;2022-07-01T00:54:55;18.90;41.70
20438;DHT22;17436;50.338;8.810;2022-07-01T00:57:22;19.30;35.70
20438;DHT22;17436;50.338;8.810;2022-07-01T00:59:49;19.20;34.60
20438;DHT22;17436;50.338;8.810;2022-07-01T01:02:16;19.00;37.70
20438;DHT22;17436;50.338;8.810;2022-07-01T01:04:43;19.00;39.10
20438;DHT22;17436;50.338;8.810;2022-07-01T01:07:09;18.90;36.60
20438;DHT22;17436;50.338;8.810;2022-07-01T01:09:36;19.20;36.70
20438;DHT22;17436;50.338;8.810;2022-07-01T01:12:04;18.70;43.90
20438;DHT22;17436;50.338;8.810;2022-07-01T01:14:43;18.50;46.80
20438;DHT22;17436;50.338;8.810;2022-07-01T01:17:10;18.50;47.90
20438;DHT22;17436;50.338;8.810;2022-07-01T01:19:37;18.20;51.00
20438;DHT22;17436;50.338;8.810;2022-07-01T01:22:05;18.30;56.80
20438;DHT22;17436;50.338;8.810;2022-07-01T01:24:32;18.50;52.40
20438;DHT22;17436;50.338;8.810;2022-07-01T01:26:59;18.30;54.30
20438;DHT22;17436;50.338;8.810;2022-07-01T01:29:26;18.00;58.60
20438;DHT22;17436;50.338;8.810;2022-07-01T01:31:54;18.00;59.20
20438;DHT22;17436;50.338;8.810;2022-07-01T01:34:21;18.20;61.20
20438;DHT22;17436;50.338;8.810;2022-07-01T01:36:47;18.40;57.30
20438;DHT22;17436;50.338;8.810;2022-07-01T01:39:15;18.20;59.30
20438;DHT22;17436;50.338;8.810;2022-07-01T01:41:42;18.30;56.60
20438;DHT22;17436;50.338;8.810;2022-07-01T01:44:09;18.40;56.20
20438;DHT22;17436;50.338;8.810;2022-07-01T01:46:36;18.70;55.70
20438;DHT22;17436;50.338;8.810;2022-07-01T01:49:04;18.40;57.80
20438;DHT22;17436;50.338;8.810;2022-07-01T01:51:31;18.20;61.10
20438;DHT22;17436;50.338;8.810;2022-07-01T01:53:58;18.20;64.10
20438;DHT22;17436;50.338;8.810;2022-07-01T01:56:26;18.10;67.20
20438;DHT22;17436;50.338;8.810;2022-07-01T01:58:53;18.00;72.40
20438;DHT22;17436;50.338;8.810;2022-07-01T02:01:20;17.90;74.00
20438;DHT22;17436;50.338;8.810;2022-07-01T02:03:47;18.00;77.40
20438;DHT22;17436;50.338;8.810;2022-07-01T02:06:15;18.20;77.60
20438;DHT22;17436;50.338;8.810;2022-07-01T02:08:42;18.20;72.40
20438;DHT22;17436;50.338;8.810;2022-07-01T02:11:09;18.00;77.40
20438;DHT22;17436;50.338;8.810;2022-07-01T02:13:38;18.20;70.70
20438;DHT22;17436;50.338;8.810;2022-07-01T02:16:05;17.90;79.80
20438;DHT22;17436;50.338;8.810;2022-07-01T02:18:31;17.90;79.40
20438;DHT22;17436;50.338;8.810;2022-07-01T02:20:59;17.70;80.90
20438;DHT22;17436;50.338;8.810;2022-07-01T02:23:26;17.80;85.60
20438;DHT22;17436;50.338;8.810;2022-07-01T02:25:54;18.10;79.90
20438;DHT22;17436;50.338;8.810;2022-07-01T02:28:21;17.90;81.30
20438;DHT22;17436;50.338;8.810;2022-07-01T02:30:49;17.80;84.90
20438;DHT22;17436;50.338;8.810;2022-07-01T02:33:16;17.90;87.20
20438;DHT22;17436;50.338;8.810;2022-07-01T02:35:42;17.80;85.30
20438;DHT22;17436;50.338;8.810;2022-07-01T02:38:09;18.00;84.40
20438;DHT22;17436;50.338;8.810;2022-07-01T02:40:36;17.80;82.60
20438;DHT22;17436;50.338;8.810;2022-07-01T02:43:06;18.00;81.10
20438;DHT22;17436;50.338;8.810;2022-07-01T02:45:34;18.00;82.20
20438;DHT22;17436;50.338;8.810;2022-07-01T02:48:02;18.00;83.30
20438;DHT22;17436;50.338;8.810;2022-07-01T02:50:29;18.00;80.30
20438;DHT22;17436;50.338;8.810;2022-07-01T02:52:56;17.90;86.90
20438;DHT22;17436;50.338;8.810;2022-07-01T02:55:23;18.20;82.40
20438;DHT22;17436;50.338;8.810;2022-07-01T02:57:50;18.00;82.00
20438;DHT22;17436;50.338;8.810;2022-07-01T03:00:18;17.80;82.90
20438;DHT22;17436;50.338;8.810;2022-07-01T03:02:45;18.00;81.30
20438;DHT22;17436;50.338;8.810;2022-07-01T03:05:14;17.90;85.40
20438;DHT22;17436;50.338;8.810;2022-07-01T03:07:41;17.60;85.40
20438;DHT22;17436;50.338;8.810;2022-07-01T03:10:09;17.60;85.60
20438;DHT22;17436;50.338;8.810;2022-07-01T03:12:36;17.90;81.40
20438;DHT22;17436;50.338;8.810;2022-07-01T03:15:06;17.50;90.70
20438;DHT22;17436;50.338;8.810;2022-07-01T03:17:35;17.40;86.80
20438;DHT22;17436;50.338;8.810;2022-07-01T03:20:03;17.80;87.80
20438;DHT22;17436;50.338;8.810;2022-07-01T03:22:32;18.10;80.60
20438;DHT22;17436;50.338;8.810;2022-07-01T03:24:59;17.60;83.80
20438;DHT22;17436;50.338;8.810;2022-07-01T03:27:26;17.70;82.30
20438;DHT22;17436;50.338;8.810;2022-07-01T03:29:53;17.90;84.90
20438;DHT22;17436;50.338;8.810;2022-07-01T03:32:20;17.70;80.70
20438;DHT22;17436;50.338;8.810;2022-07-01T03:34:50;17.90;79.10
20438;DHT22;17436;50.338;8.810;2022-07-01T03:37:18;17.60;81.80
20438;DHT22;17436;50.338;8.810;2022-07-01T03:39:47;17.70;82.50
20438;DHT22;17436;50.338;8.810;2022-07-01T03:42:15;17.30;85.00
20438;DHT22;17436;50.338;8.810;2022-07-01T03:44:44;17.80;82.20
20438;DHT22;17436;50.338;8.810;2022-07-01T03:47:11;17.90;77.30
20438;DHT22;17436;50.338;8.810;2022-07-01T03:49:38;17.90;77.40
20438;DHT22;17436;50.338;8.810;2022-07-01T03:52:05;18.00;74.90
20438;DHT22;17436;50.338;8.810;2022-07-01T03:54:32;17.50;80.30
20438;DHT22;17436;50.338;8.810;2022-07-01T03:57:03;17.60;80.60
20438;DHT22;17436;50.338;8.810;2022-07-01T03:59:33;17.60;77.10
20438;DHT22;17436;50.338;8.810;2022-07-01T04:02:01;17.40;80.90
20438;DHT22;17436;50.338;8.810;2022-07-01T04:04:29;17.50;83.30
20438;DHT22;17436;50.338;8.810;2022-07-01T04:06:57;17.60;79.90
20438;DHT22;17436;50.338;8.810;2022-07-01T04:09:25;17.70;80.30
20438;DHT22;17436;50.338;8.810;2022-07-01T04:11:52;17.50;80.00
20438;DHT22;17436;50.338;8.810;2022-07-01T04:14:22;17.60;83.90
20438;DHT22;17436;50.338;8.810;2022-07-01T04:16:51;17.80;79.10
20438;DHT22;17436;50.338;8.810;2022-07-01T04:19:19;17.60;78.50
20438;DHT22;17436;50.338;8.810;2022-07-01T04:21:45;17.40;83.70
20438;DHT22;17436;50.338;8.810;2022-07-01T04:24:31;17.80;80.40
20438;DHT22;17436;50.338;8.810;2022-07-01T04:27:00;18.00;76.30
20438;DHT22;17436;50.338;8.810;2022-07-01T04:29:28;17.40;80.80
20438;DHT22;17436;50.338;8.810;2022-07-01T04:31:56;17.60;81.40
20438;DHT22;17436;50.338;8.810;2022-07-01T04:34:27;17.40;84.40
20438;DHT22;17436;50.338;8.810;2022-07-01T04:36:59;17.40;86.50
20438;DHT22;17436;50.338;8.810;2022-07-01T04:39:26;17.60;83.40
20438;DHT22;17436;50.338;8.810;2022-07-01T04:41:52;17.80;81.60
20438;DHT22;17436;50.338;8.810;2022-07-01T04:44:31;18.00;78.10
20438;DHT22;17436;50.338;8.810;2022-07-01T04:46:59;17.60;82.60
20438;DHT22;17436;50.338;8.810;2022-07-01T04:49:26;17.50;80.50
20438;DHT22;17436;50.338;8.810;2022-07-01T04:51:53;17.80;83.90
20438;DHT22;17436;50.338;8.810;2022-07-01T04:54:20;17.90;77.30
20438;DHT22;17436;50.338;8.810;2022-07-01T04:56:48;17.90;81.80
20438;DHT22;17436;50.338;8.810;2022-07-01T04:59:15;18.10;77.50
20438;DHT22;17436;50.338;8.810;2022-07-01T05:01:44;18.10;72.70
20438;DHT22;17436;50.338;8.810;2022-07-01T05:04:15;18.00;75.60
20438;DHT22;17436;50.338;8.810;2022-07-01T05:06:43;18.00;76.20
20438;DHT22;17436;50.338;8.810;2022-07-01T05:09:12;18.00;77.40
20438;DHT22;17436;50.338;8.810;2022-07-01T05:11:38;17.80;77.80
20438;DHT22;17436;50.338;8.810;2022-07-01T05:14:05;17.70;77.20
20438;DHT22;17436;50.338;8.810;2022-07-01T05:16:34;17.80;77.20
20438;DHT22;17436;50.338;8.810;2022-07-01T05:19:03;17.70;78.50
20438;DHT22;17436;50.338;8.810;2022-07-01T05:21:46;18.00;75.00
20438;DHT22;17436;50.338;8.810;2022-07-01T05:24:30;17.90;77.30
20438;DHT22;17436;50.338;8.810;2022-07-01T05:27:00;18.20;72.20
20438;DHT22;17436;50.338;8.810;2022-07-01T05:29:27;18.30;71.60
20438;DHT22;17436;50.338;8.810;2022-07-01T05:31:54;18.00;69.90
20438;DHT22;17436;50.338;8.810;2022-07-01T05:34:23;18.00;69.30
20438;DHT22;17436;50.338;8.810;2022-07-01T05:36:50;18.10;70.80
20438;DHT22;17436;50.338;8.810;2022-07-01T05:39:17;17.80;71.30
20438;DHT22;17436;50.338;8.810;2022-07-01T05:41:43;18.00;75.80
20438;DHT22;17436;50.338;8.810;2022-07-01T05:44:11;18.10;69.50
20438;DHT22;17436;50.338;8.810;2022-07-01T05:46:39;18.10;68.90
20438;DHT22;17436;50.338;8.810;2022-07-01T05:49:09;18.10;69.00
20438;DHT22;17436;50.338;8.810;2022-07-01T05:51:37;18.30;67.40
20438;DHT22;17436;50.338;8.810;2022-07-01T05:54:04;18.20;65.20
20438;DHT22;17436;50.338;8.810;2022-07-01T05:56:30;18.20;63.00
20438;DHT22;17436;50.338;8.810;2022-07-01T05:58:58;18.10;70.50
20438;DHT22;17436;50.338;8.810;2022-07-01T06:01:24;18.10;68.50
20438;DHT22;17436;50.338;8.810;2022-07-01T06:03:51;18.00;70.80
20438;DHT22;17436;50.338;8.810;2022-07-01T06:06:18;18.10;73.60
20438;DHT22;17436;50.338;8.810;2022-07-01T06:08:46;18.30;71.70
20438;DHT22;17436;50.338;8.810;2022-07-01T06:11:17;18.30;69.70
20438;DHT22;17436;50.338;8.810;2022-07-01T06:13:43;18.00;67.30
20438;DHT22;17436;50.338;8.810;2022-07-01T06:16:10;18.10;65.80
20438;DHT22;17436;50.338;8.810;2022-07-01T06:18:37;18.20;68.00
20438;DHT22;17436;50.338;8.810;2022-07-01T06:21:04;18.40;68.80
20438;DHT22;17436;50.338;8.810;2022-07-01T06:23:31;18.50;64.30
20438;DHT22;17436;50.338;8.810;2022-07-01T06:25:59;18.40;66.80
20438;DHT22;17436;50.338;8.810;2022-07-01T06:28:26;18.30;70.90
20438;DHT22;17436;50.338;8.810;2022-07-01T06:30:56;18.30;67.40
20438;DHT22;17436;50.338;8.810;2022-07-01T06:33:23;18.50;68.10
20438;DHT22;17436;50.338;8.810;2022-07-01T06:35:50;18.50;65.80
20438;DHT22;17436;50.338;8.810;2022-07-01T06:38:17;18.60;63.00
20438;DHT22;17436;50.338;8.810;2022-07-01T06:40:44;18.70;60.00
20438;DHT22;17436;50.338;8.810;2022-07-01T06:43:33;18.40;58.40
20438;DHT22;17436;50.338;8.810;2022-07-01T06:46:02;18.50;62.20
20438;DHT22;17436;50.338;8.810;2022-07-01T06:48:28;18.50;61.40
20438;DHT22;17436;50.338;8.810;2022-07-01T06:50:56;18.70;59.80
20438;DHT22;17436;50.338;8.810;2022-07-01T06:53:23;18.80;58.30
20438;DHT22;17436;50.338;8.810;2022-07-01T06:55:50;18.90;55.90
20438;DHT22;17436;50.338;8.810;2022-07-01T06:58:16;19.00;55.90
20438;DHT22;17436;50.338;8.810;2022-07-01T07:00:45;18.70;55.20
20438;DHT22;17436;50.338;8.810;2022-07-01T07:03:12;18.50;57.30
20438;DHT22;17436;50.338;8.810;2022-07-01T07:05:38;18.90;55.80
20438;DHT22;17436;50.338;8.810;2022-07-01T07:08:05;18.80;53.90
20438;DHT22;17436;50.338;8.810;2022-07-01T07:10:32;18.60;55.60
20438;DHT22;17436;50.338;8.810;2022-07-01T07:12:58;18.70;55.70
20438;DHT22;17436;50.338;8.810;2022-07-01T07:15:25;18.60;50.80
20438;DHT22;17436;50.338;8.810;2022-07-01T07:17:53;18.40;52.60
20438;DHT22;17436;50.338;8.810;2022-07-01T07:20:23;18.50;50.80
20438;DHT22;17436;50.338;8.810;2022-07-01T07:22:51;18.70;45.30
20438;DHT22;17436;50.338;8.810;2022-07-01T07:25:25;18.50;49.40
20438;DHT22;17436;50.338;8.810;2022-07-01T07:27:51;18.30;51.30
20438;DHT22;17436;50.338;8.810;2022-07-01T07:30:18;18.30;51.90
20438;DHT22;17436;50.338;8.810;2022-07-01T07:32:46;18.40;47.10
20438;DHT22;17436;50.338;8.810;2022-07-01T07:35:14;18.60;48.10
20438;DHT22;17436;50.338;8.810;2022-07-01T07:37:41;18.50;45.50
20438;DHT22;17436;50.338;8.810;2022-07-01T07:40:09;18.40;50.40
20438;DHT22;17436;50.338;8.810;2022-07-01T07:42:38;18.60;47.90
20438;DHT22;17436;50.338;8.810;2022-07-01T07:45:05;18.50;46.80
20438;DHT22;17436;50.338;8.810;2022-07-01T07:47:33;18.50;47.70
20438;DHT22;17436;50.338;8.810;2022-07-01T07:50:00;18.30;45.90
20438;DHT22;17436;50.338;8.810;2022-07-01T07:52:28;18.20;46.70
20438;DHT22;17436;50.338;8.810;2022-07-01T07:54:56;18.40;48.20
20438;DHT22;17436;50.338;8.810;2022-07-01T07:57:23;18.40;43.70
20438;DHT22;17436;50.338;8.810;2022-07-01T07:59:50;18.40;47.00
20438;DHT22;17436;50.338;8.810;2022-07-01T08:02:17;18.60;43.60
20438;DHT22;17436;50.338;8.810;2022-07-01T08:04:44;18.60;43.20
20438;DHT22;17436;50.338;8.810;2022-07-01T08:07:10;18.60;47.40
20438;DHT22;17436;50.338;8.810;2022-07-01T08:09:38;18.30;55.30
20438;DHT22;17436;50.338;8.810;2022-07-01T08:12:11;18.20;58.20
20438;DHT22;17436;50.338;8.810;2022-07-01T08:14:38;17.90;66.20
20438;DHT22;17436;50.338;8.810;2022-07-01T08:17:05;17.70;70.20
20438;DHT22;17436;50.338;8.810;2022-07-01T08:19:32;17.70;72.10
20438;DHT22;17436;50.338;8.810;2022-07-01T08:21:59;17.50;71.40
20438;DHT22;17436;50.338;8.810;2022-07-01T08:24:26;17.40;74.10
20438;DHT22;17436;50.338;8.810;2022-07-01T08:26:54;17.30;76.80
20438;DHT22;17436;50.338;8.810;2022-07-01T08:29:21;17.50;77.50
20438;DHT22;17436;50.338;8.810;2022-07-01T08:31:48;17.60;82.20
20438;DHT22;17436;50.338;8.810;2022-07-01T08:34:15;17.40;86.90
20438;DHT22;17436;50.338;8.810;2022-07-01T08:36:42;17.70;85.10
20438;DHT22;17436;50.338;8.810;2022-07-01T08:39:08;17.60;83.00
20438;DHT22;17436;50.338;8.810;2022-07-01T08:41:35;17.80;84.90
20438;DHT22;17436;50.338;8.810;2022-07-01T08:44:03;17.90;84.90
20438;DHT22;17436;50.338;8.810;2022-07-01T08:46:30;18.10;89.10
20438;DHT22;17436;50.338;8.810;2022-07-01T08:48:57;18.10;79.50
20438;DHT22;17436;50.338;8.810;2022-07-01T08:51:23;18.10;86.70
20438;DHT22;17436;50.338;8.810;2022-07-01T08:53:50;17.80;77.20
20438;DHT22;17436;50.338;8.810;2022-07-01T08:56:17;18.20;83.60
20438;DHT22;17436;50.338;8.810;2022-07-01T08:59:03;18.30;75.60
20438;DHT22;17436;50.338;8.810;2022-07-01T09:01:33;18.20;77.60
20438;DHT22;17436;50.338;8.810;2022-07-01T09:04:13;18.20;83.40
20438;DHT22;17436;50.338;8.810;2022-07-01T09:06:40;18.40;82.20
20438;DHT22;17436;50.338;8.810;2022-07-01T09:09:11;18.50;78.00
20438;DHT22;17436;50.338;8.810;2022-07-01T09:11:44;18.50;77.90
20438;DHT22;17436;50.338;8.810;2022-07-01T09:14:13;18.10;77.60
20438;DHT22;17436;50.338;8.810;2022-07-01T09:16:41;18.20;87.30
20438;DHT22;17436;50.338;8.810;2022-07-01T09:19:09;18.20;77.90
20438;DHT22;17436;50.338;8.810;2022-07-01T09:21:36;18.20;83.70
20438;DHT22;17436;50.338;8.810;2022-07-01T09:24:04;18.40;87.30
20438;DHT22;17436;50.338;8.810;2022-07-01T09:26:31;18.60;82.50
20438;DHT22;17436;50.338;8.810;2022-07-01T09:28:58;18.10;76.00
20438;DHT22;17436;50.338;8.810;2022-07-01T09:31:33;18.10;76.90
20438;DHT22;17436;50.338;8.810;2022-07-01T09:34:04;18.30;72.80
20438;DHT22;17436;50.338;8.810;2022-07-01T09:36:31;18.10;73.60
20438;DHT22;17436;50.338;8.810;2022-07-01T09:39:03;17.90;73.70
20438;DHT22;17436;50.338;8.810;2022-07-01T09:41:35;17.80;77.20
20438;DHT22;17436;50.338;8.810;2022-07-01T09:44:04;17.80;75.00
20438;DHT22;17436;50.338;8.810;2022-07-01T09:46:32;18.00;77.40
20438;DHT22;17436;50.338;8.810;2022-07-01T09:48:59;18.00;71.00
20438;DHT22;17436;50.338;8.810;2022-07-01T09:51:26;17.90;70.90
20438;DHT22;17436;50.338;8.810;2022-07-01T09:53:54;17.90;71.80
20438;DHT22;17436;50.338;8.810;2022-07-01T09:56:25;17.80;70.60
20438;DHT22;17436;50.338;8.810;2022-07-01T09:58:52;17.90;77.00
20438;DHT22;17436;50.338;8.810;2022-07-01T10:01:19;17.70;66.90
20438;DHT22;17436;50.338;8.810;2022-07-01T10:03:49;17.80;71.30
20438;DHT22;17436;50.338;8.810;2022-07-01T10:06:37;18.10;73.20
20438;DHT22;17436;50.338;8.810;2022-07-01T10:09:31;18.10;75.80
20438;DHT22;17436;50.338;8.810;2022-07-01T10:15:09;18.30;68.70
20438;DHT22;17436;50.338;8.810;2022-07-01T10:17:40;18.60;65.00
20438;DHT22;17436;50.338;8.810;2022-07-01T10:20:13;18.70;70.00
20438;DHT22;17436;50.338;8.810;2022-07-01T10:22:42;18.60;71.60
20438;DHT22;17436;50.338;8.810;2022-07-01T10:25:31;18.40;73.80
20438;DHT22;17436;50.338;8.810;2022-07-01T10:28:22;18.60;78.00
20438;DHT22;17436;50.338;8.810;2022-07-01T10:30:55;18.80;70.20
20438;DHT22;17436;50.338;8.810;2022-07-01T10:33:33;18.80;69.90
20438;DHT22;17436;50.338;8.810;2022-07-01T10:36:06;18.90;74.30
20438;DHT22;17436;50.338;8.810;2022-07-01T10:38:35;19.10;78.40
20438;DHT22;17436;50.338;8.810;2022-07-01T10:41:04;19.20;77.40
20438;DHT22;17436;50.338;8.810;2022-07-01T10:43:40;18.90;65.90
20438;DHT22;17436;50.338;8.810;2022-07-01T10:46:08;19.10;66.00
20438;DHT22;17436;50.338;8.810;2022-07-01T10:48:35;19.40;67.20
20438;DHT22;17436;50.338;8.810;2022-07-01T10:51:02;19.60;72.20
20438;DHT22;17436;50.338;8.810;2022-07-01T10:53:45;19.80;77.40
20438;DHT22;17436;50.338;8.810;2022-07-01T10:56:16;19.80;66.10
20438;DHT22;17436;50.338;8.810;2022-07-01T10:58:43;19.90;59.70
20438;DHT22;17436;50.338;8.810;2022-07-01T11:01:10;19.80;62.00
20438;DHT22;17436;50.338;8.810;2022-07-01T11:03:38;19.50;51.30
20438;DHT22;17436;50.338;8.810;2022-07-01T11:06:05;19.10;48.10
20438;DHT22;17436;50.338;8.810;2022-07-01T11:08:34;19.30;54.50
20438;DHT22;17436;50.338;8.810;2022-07-01T11:11:01;19.40;52.30
20438;DHT22;17436;50.338;8.810;2022-07-01T11:13:31;19.60;49.60
20438;DHT22;17436;50.338;8.810;2022-07-01T11:15:59;19.80;46.30
20438;DHT22;17436;50.338;8.810;2022-07-01T11:18:26;19.90;47.10
20438;DHT22;17436;50.338;8.810;2022-07-01T11:21:02;19.90;42.90
20438;DHT22;17436;50.338;8.810;2022-07-01T11:23:29;19.90;42.50
20438;DHT22;17436;50.338;8.810;2022-07-01T11:25:58;19.80;42.40
20438;DHT22;17436;50.338;8.810;2022-07-01T11:28:25;20.00;44.50
20438;DHT22;17436;50.338;8.810;2022-07-01T11:30:58;20.10;46.70
20438;DHT22;17436;50.338;8.810;2022-07-01T11:33:25;20.30;46.50
20438;DHT22;17436;50.338;8.810;2022-07-01T11:35:52;20.30;39.00
20438;DHT22;17436;50.338;8.810;2022-07-01T11:38:36;20.40;37.40
20438;DHT22;17436;50.338;8.810;2022-07-01T11:41:23;20.40;29.20
20438;DHT22;17436;50.338;8.810;2022-07-01T11:43:51;20.40;34.50
20438;DHT22;17436;50.338;8.810;2022-07-01T11:46:18;20.50;29.40
20438;DHT22;17436;50.338;8.810;2022-07-01T11:48:47;20.50;29.80
20438;DHT22;17436;50.338;8.810;2022-07-01T11:51:16;20.40;32.50
20438;DHT22;17436;50.338;8.810;2022-07-01T11:53:44;20.50;30.40
20438;DHT22;17436;50.338;8.810;2022-07-01T11:56:13;20.50;27.70
20438;DHT22;17436;50.338;8.810;2022-07-01T11:58:45;20.50;21.60
20438;DHT22;17436;50.338;8.810;2022-07-01T12:01:20;20.30;17.50
20438;DHT22;17436;50.338;8.810;2022-07-01T12:03:47;20.10;21.70
20438;DHT22;17436;50.338;8.810;2022-07-01T12:06:16;20.30;22.90
20438;DHT22;17436;50.338;8.810;2022-07-01T12:08:44;20.50;22.90
20438;DHT22;17436;50.338;8.810;2022-07-01T12:11:11;20.60;24.90
20438;DHT22;17436;50.338;8.810;2022-07-01T12:13:38;20.80;21.80
20438;DHT22;17436;50.338;8.810;2022-07-01T12:16:13;20.70;20.50
20438;DHT22;17436;50.338;8.810;2022-07-01T12:18:54;20.80;19.50
20438;DHT22;17436;50.338;8.810;2022-07-01T12:21:21;20.80;24.60
20438;DHT22;17436;50.338;8.810;2022-07-01T12:24:12;20.60;18.80
20438;DHT22;17436;50.338;8.810;2022-07-01T12:26:48;20.60;17.30
20438;DHT22;17436;50.338;8.810;2022-07-01T12:29:15;20.40;14.90
20438;DHT22;17436;50.338;8.810;2022-07-01T12:31:46;20.30;20.90
20438;DHT22;17436;50.338;8.810;2022-07-01T12:34:19;20.30;21.80
20438;DHT22;17436;50.338;8.810;2022-07-01T12:36:47;20.50;21.20
20438;DHT22;17436;50.338;8.810;2022-07-01T12:39:14;20.40;22.20
20438;DHT22;17436;50.338;8.810;2022-07-01T12:41:49;20.40;22.00
20438;DHT22;17436;50.338;8.810;2022-07-01T12:44:22;20.40;24.30
20438;DHT22;17436;50.338;8.810;2022-07-01T12:46:51;20.30;21.50
20438;DHT22;17436;50.338;8.810;2022-07-01T12:49:20;20.30;22.90
20438;DHT22;17436;50.338;8.810;2022-07-01T12:51:47;20.30;26.70
20438;DHT22;17436;50.338;8.810;2022-07-01T12:54:28;20.20;28.00
20438;DHT22;17436;50.338;8.810;2022-07-01T12:56:55;20.30;27.70
20438;DHT22;17436;50.338;8.810;2022-07-01T12:59:22;20.30;25.10
20438;DHT22;17436;50.338;8.810;2022-07-01T13:01:50;20.30;24.80
20438;DHT22;17436;50.338;8.810;2022-07-01T13:04:23;20.30;23.80
20438;DHT22;17436;50.338;8.810;2022-07-01T13:06:50;20.30;24.60
20438;DHT22;17436;50.338;8.810;2022-07-01T13:09:17;20.50;25.30
20438;DHT22;17436;50.338;8.810;2022-07-01T13:11:44;20.70;19.20
20438;DHT22;17436;50.338;8.810;2022-07-01T13:14:12;20.40;20.40
20438;DHT22;17436;50.338;8.810;2022-07-01T13:16:40;20.50;24.40
20438;DHT22;17436;50.338;8.810;2022-07-01T13:19:08;20.60;15.00
20438;DHT22;17436;50.338;8.810;2022-07-01T13:21:34;20.50;16.70
20438;DHT22;17436;50.338;8.810;2022-07-01T13:24:02;20.40;17.10
20438;DHT22;17436;50.338;8.810;2022-07-01T13:26:29;20.70;20.00
20438;DHT22;17436;50.338;8.810;2022-07-01T13:28:55;20.80;18.10
20438;DHT22;17436;50.338;8.810;2022-07-01T13:31:22;21.00;19.80
20438;DHT22;17436;50.338;8.810;2022-07-01T13:33:49;20.90;20.30
20438;DHT22;17436;50.338;8.810;2022-07-01T13:36:17;21.00;15.20
20438;DHT22;17436;50.338;8.810;2022-07-01T13:38:43;20.90;20.30
20438;DHT22;17436;50.338;8.810;2022-07-01T13:41:10;20.90;20.60
20438;DHT22;17436;50.338;8.810;2022-07-01T13:43:37;20.90;11.50
20438;DHT22;17436;50.338;8.810;2022-07-01T13:46:03;20.90;11.50
20438;DHT22;17436;50.338;8.810;2022-07-01T13:48:31;20.80;16.90
20438;DHT22;17436;50.338;8.810;2022-07-01T13:50:58;20.60;12.40
20438;DHT22;17436;50.338;8.810;2022-07-01T13:53:26;20.70;19.10
20438;DHT22;17436;50.338;8.810;2022-07-01T13:55:52;20.70;12.30
20438;DHT22;17436;50.338;8.810;2022-07-01T13:58:19;20.80;13.50
20438;DHT22;17436;50.338;8.810;2022-07-01T14:00:46;20.80;11.40
20438;DHT22;17436;50.338;8.810;2022-07-01T14:03:12;20.70;11.30
20438;DHT22;17436;50.338;8.810;2022-07-01T14:05:39;20.80;12.00
20438;DHT22;17436;50.338;8.810;2022-07-01T14:08:06;20.90;12.80
20438;DHT22;17436;50.338;8.810;2022-07-01T14:10:35;20.90;13.90
20438;DHT22;17436;50.338;8.810;2022-07-01T14:13:03;20.90;14.70
20438;DHT22;17436;50.338;8.810;2022-07-01T14:15:30;21.00;17.20
20438;DHT22;17436;50.338;8.810;2022-07-01T14:17:57;20.90;14.20
20438;DHT22;17436;50.338;8.810;2022-07-01T14:20:23;20.80;13.50
20438;DHT22;17436;50.338;8.810;2022-07-01T14:22:51;20.80;11.40
20438;DHT22;17436;50.338;8.810;2022-07-01T14:25:18;20.70;10.80
20438;DHT22;17436;50.338;8.810;2022-07-01T14:27:47;20.60;9.20
20438;DHT22;17436;50.338;8.810;2022-07-01T14:30:15;20.70;11.00
20438;DHT22;17436;50.338;8.810;2022-07-01T14:32:42;20.70;14.20
20438;DHT22;17436;50.338;8.810;2022-07-01T14:35:09;20.60;11.20
20438;DHT22;17436;50.338;8.810;2022-07-01T14:37:36;20.50;13.00
20438;DHT22;17436;50.338;8.810;2022-07-01T14:40:10;20.50;15.20
20438;DHT22;17436;50.338;8.810;2022-07-01T14:42:38;20.40;21.30
20438;DHT22;17436;50.338;8.810;2022-07-01T14:45:07;20.30;20.30
20438;DHT22;17436;50.338;8.810;2022-07-01T14:47:34;20.10;19.60
20438;DHT22;17436;50.338;8.810;2022-07-01T14:50:02;20.00;22.30
20438;DHT22;17436;50.338;8.810;2022-07-01T14:52:29;20.10;40.00
20438;DHT22;17436;50.338;8.810;2022-07-01T14:54:56;20.10;40.20
20438;DHT22;17436;50.338;8.810;2022-07-01T14:57:22;20.20;39.20
20438;DHT22;17436;50.338;8.810;2022-07-01T14:59:49;20.20;53.70
20438;DHT22;17436;50.338;8.810;2022-07-01T15:02:18;20.10;59.30
20438;DHT22;17436;50.338;8.810;2022-07-01T15:04:45;20.10;54.10
20438;DHT22;17436;50.338;8.810;2022-07-01T15:07:12;20.00;56.90
20438;DHT22;17436;50.338;8.810;2022-07-01T15:09:39;20.00;56.90
20438;DHT22;17436;50.338;8.810;2022-07-01T15:12:07;19.90;54.00
20438;DHT22;17436;50.338;8.810;2022-07-01T15:14:35;19.90;54.40
20438;DHT22;17436;50.338;8.810;2022-07-01T15:17:04;20.10;52.50
20438;DHT22;17436;50.338;8.810;2022-07-01T15:19:32;20.10;57.00
20438;DHT22;17436;50.338;8.810;2022-07-01T15:21:59;20.10;55.00
20438;DHT22;17436;50.338;8.810;2022-07-01T15:24:26;20.10;54.40
20438;DHT22;17436;50.338;8.810;2022-07-01T15:26:53;20.10;57.00
20438;DHT22;17436;50.338;8.810;2022-07-01T15:29:20;20.20;64.70
20438;DHT22;17436;50.338;8.810;2022-07-01T15:31:46;20.00;57.20
20438;DHT22;17436;50.338;8.810;2022-07-01T15:34:15;20.10;55.90
20438;DHT22;17436;50.338;8.810;2022-07-01T15:36:44;20.10;57.00
20438;DHT22;17436;50.338;8.810;2022-07-01T15:39:10;20.10;57.00
20438;DHT22;17436;50.338;8.810;2022-07-01T15:41:38;20.10;57.00